Share

Pinson, TN

Woods (KTNHENDE14) Elev 472 ft | 35.44 °N, 88.66 °W | Change Station

Current weather conditions updated 13 minutes ago

Clear
Clear
51.8 °F
Feels Like 51.8 °F
N
0.0
Wind Variable Wind from North
Sunrise 6:14 AM
Sunset 7:33 PM
Moon Waning Gibbous

Today is forecast to be Much Cooler than yesterday. Showers possible tonight.

Pressure 30.07 in
Visibility 10.0 miles
Clouds Clear
Dew Point 51 °F
Humidity 96%
Rainfall 0.00 in
Snow Depth Not available.
UV 0 out of 16
Pollen 8.70 out of 12
Air Quality Not available.
Flu Activity Local Activity
METAR KNQA 210955Z AUTO 00000KT 10SM CLR 14/11 A3007 RMK

More Conditions Fewer Conditions

Pressure 30.07 in
Visibility 10.0 miles
Clouds Clear
Dew Point 51 °F
Humidity 96%
Rainfall 0.00 in
Snow Depth Not available.
UV 0 out of 16
Pollen 8.70 out of 12
Air Quality Not available.
Flu Activity Local Activity
METAR KNQA 210955Z AUTO 00000KT 10SM CLR 14/11 A3007 RMK

More Conditions Fewer Conditions

10-Day Weather Forecast

Almanac

Astronomy

Apr. 21, 2014 Rise Set
Actual Time 6:14 AM CDT 7:33 PM CDT
Civil Twilight 5:48 AM CDT 7:59 PM CDT
Nautical Twilight 5:16 AM CDT 8:31 PM CDT
Astronomical Twilight 4:43 AM CDT 9:04 PM CDT
Moon 12:59 AM CDT 11:44 AM CDT
Length of Visible Light 14h 11m
Length of Day
13h 18m
Tomorrow will be 2m 2s longer.
Waning Gibbous, 60% of the Moon is Illuminated
Today
Waning Gibbous
Apr 22
Last Quarter
Apr 29
New
May 6
First Quarter
May 14
Full

Today's Extremes

State Highs State Lows

Community

  • Snowy Robin
    Snowy Robin
  • Sun Pillar and Geese
    Sun Pillar and Geese
  • Showers on the Way
    Showers on the Way
  • Easter Morning Fog
    Easter Morning Fog
  • Easter Dance
    Easter Dance

WunderPhotos

Upload Photos

1,703,595 photos uploaded!

Nearby

Snow Depth

Station Depth Elevation
No new snow has been reported.

Coastal Water Temperatures

Place Temperature
No Stations Reporting

Earthquake Activity

City Distance Mag. Time & Date
No recent earthquake activity has been reported nearby.
Minimum magnitude displayed is 2.5.

Nearby Weather Stations

Station Location Temp. Dew Point Humidity Wind Precip. Elev Updated Type
Woods, Henderson, TN 51.8 °F 51 °F 96% North  at  0.0 mph - / hr 472 ft 6:34 AM CDT Normal
RAWS CHICKASAW SF TN, Silerton, TN 55 °F 47 °F 74% ESE  at  2 mph 0.00 in / hr 438 ft 6:07 AM CDT MADIS
Union University, Jackson, TN 60.1 °F 46 °F 61% South  at  0.0 mph - / hr 476 ft 6:36 AM CDT Normal
North Park, Jackson, TN 56.1 °F 51 °F 83% SE  at  0.0 mph 0.00 in / hr 423 ft 6:45 AM CDT Normal
Medina, TN 51.4 °F 50 °F 95% NE  at  0.0 mph 0.00 in / hr 380 ft 7:40 AM EDT Normal
Spring Creek, Jackson, TN 52.5 °F 48 °F 84% West  at  0.0 mph 0.00 in / hr 528 ft 6:40 AM CDT Normal

Show More Stations Show Fewer Stations

What do you think?

We're not finished. Please let us know what you like, what you don't like, and what you are still missing.